»·PEaware :: SWA1140 KLAX-KLAS

SWA1140 :: KLAX-KLAS

FLIGHT INFORMATION

Flight Status: Arrived
Operator:
Southwest Airlines
More flights by this operator :: More flights under this callsign
Pilot: Anonymous 28556 (28556)
Aircraft: BOEING 737-800
(B738)
More flights by this aircraft type
Origin: KLAX Los Angeles Intl
United States
Destination: KLAS McCarran Intl
United States
More flights between these airports :: More routes between these airports
Route: ORCKA5 MISEN KEPEC6
File this flight plan on PilotEdge
Remarks: RMK / SIMBRIEF
Altitude:
(Current/Filed)
29,000ft
Speed:
(Current/Filed)
446kts
Departed: 07-Jan-21 03:49 PM
Arrived: 07-Jan-21 04:45 PM
Distance/Time
Traveled:
205nm/0:56
Distance/Time
To Go:
Arrived

Flight Plot

Page will automatically refresh every two minutes.

Flight plan parsing failed; only flown route is shown


Map Options




Map Legend


Flown Route
Filed Route
Departure Airport
Arrival Airport
Navaid (VOR, NDB)
Fix

Horizontal Profiles

Position Reports

Time Latitude Longitude Heading Altitude Ground
Speed
07-Jan-21 15:17 33.947311 -118.400693 263 119ft 0kts
07-Jan-21 15:18 33.947311 -118.400693 263 119ft 0kts
07-Jan-21 15:19 33.947311 -118.400693 263 119ft 0kts
07-Jan-21 15:20 33.947311 -118.400693 263 119ft 0kts
07-Jan-21 15:21 33.947311 -118.400693 263 119ft 0kts
07-Jan-21 15:22 33.947311 -118.400693 263 119ft 0kts
07-Jan-21 15:23 33.947311 -118.400693 263 119ft 0kts
07-Jan-21 15:24 33.947311 -118.400693 263 119ft 0kts
07-Jan-21 15:25 33.947311 -118.400693 263 119ft 0kts
07-Jan-21 15:26 33.947311 -118.400693 263 119ft 0kts
07-Jan-21 15:27 33.947311 -118.400693 263 119ft 0kts
07-Jan-21 15:28 33.947311 -118.400693 263 119ft 0kts
07-Jan-21 15:29 33.947311 -118.400693 263 119ft 0kts
07-Jan-21 15:30 33.947311 -118.400693 263 119ft 0kts
07-Jan-21 15:31 33.947311 -118.400693 263 119ft 0kts
07-Jan-21 15:32 33.947311 -118.400693 263 119ft 0kts
07-Jan-21 15:33 33.947311 -118.400693 263 119ft 0kts
07-Jan-21 15:34 33.947311 -118.400693 263 119ft 0kts
07-Jan-21 15:35 33.947311 -118.400693 263 119ft 0kts
07-Jan-21 15:36 33.947311 -118.400693 263 119ft 0kts
07-Jan-21 15:37 33.947311 -118.400693 263 119ft 0kts
07-Jan-21 15:38 33.947311 -118.400693 263 119ft 0kts
07-Jan-21 15:39 33.947308 -118.400725 263 119ft 0kts
07-Jan-21 15:40 33.947363 -118.400180 263 118ft 6kts
07-Jan-21 15:41 33.947397 -118.399846 263 117ft 0kts
07-Jan-21 15:42 33.947397 -118.399846 263 117ft 0kts
07-Jan-21 15:43 33.948739 -118.400716 343 117ft 14kts
07-Jan-21 15:44 33.949245 -118.400028 79 115ft 0kts
07-Jan-21 15:45 33.949259 -118.399942 79 115ft 7kts
07-Jan-21 15:46 33.949406 -118.399446 51 115ft 0kts
07-Jan-21 15:47 33.950022 -118.399168 354 115ft 9kts
07-Jan-21 15:48 33.947950 -118.423021 263 938ft 176kts
07-Jan-21 15:49 33.941329 -118.490539 263 2826ft 248kts
07-Jan-21 15:50 33.931987 -118.579062 263 5253ft 284kts
07-Jan-21 15:51 33.917008 -118.670630 235 10463ft 289kts
07-Jan-21 15:52 33.837719 -118.672600 130 13533ft 361kts
07-Jan-21 15:53 33.838843 -118.553851 57 15000ft 373kts
07-Jan-21 15:54 33.909031 -118.462610 42 15512ft 385kts
07-Jan-21 15:55 33.975931 -118.359736 55 18980ft 406kts
07-Jan-21 15:56 34.040630 -118.243453 54 21868ft 429kts
07-Jan-21 15:57 34.109942 -118.120698 53 24453ft 450kts
07-Jan-21 15:58 34.181815 -117.993058 53 26799ft 467kts
07-Jan-21 15:59 34.254985 -117.862868 52 29122ft 472kts
07-Jan-21 16:00 34.327724 -117.733117 53 29140ft 461kts
07-Jan-21 16:01 34.401651 -117.605951 50 29207ft 460kts
07-Jan-21 16:02 34.477216 -117.479549 50 29219ft 460kts
07-Jan-21 16:03 34.552569 -117.352994 50 29219ft 460kts
07-Jan-21 16:04 34.627697 -117.226488 51 29219ft 460kts
07-Jan-21 16:05 34.702639 -117.099757 51 29219ft 461kts
07-Jan-21 16:06 34.777296 -116.973029 51 29212ft 466kts
07-Jan-21 16:07 34.854497 -116.841526 50 29198ft 481kts
07-Jan-21 16:08 34.931736 -116.709038 51 29201ft 479kts
07-Jan-21 16:09 35.006088 -116.575730 50 27873ft 458kts
07-Jan-21 16:10 35.077110 -116.449167 50 25265ft 432kts
07-Jan-21 16:11 35.154008 -116.340574 41 24196ft 426kts
07-Jan-21 16:12 35.236385 -116.236434 41 24195ft 422kts
07-Jan-21 16:13 35.318365 -116.134842 43 21927ft 428kts
07-Jan-21 16:14 35.398220 -116.033047 43 19435ft 403kts
07-Jan-21 16:15 35.473604 -115.937276 43 18285ft 399kts
07-Jan-21 16:16 35.548366 -115.842418 44 15795ft 379kts
07-Jan-21 16:17 35.619156 -115.752382 44 13698ft 351kts
07-Jan-21 16:18 35.681629 -115.672590 45 13019ft 306kts
07-Jan-21 16:19 35.743691 -115.599427 30 13017ft 308kts
07-Jan-21 16:20 35.824710 -115.571717 1 13020ft 304kts
07-Jan-21 16:21 35.909468 -115.566992 0 13011ft 304kts
07-Jan-21 16:22 35.982423 -115.521713 56 12780ft 298kts
07-Jan-21 16:23 36.014503 -115.427996 68 11305ft 292kts
07-Jan-21 16:24 36.028242 -115.334434 94 10782ft 273kts
07-Jan-21 16:25 36.021393 -115.241272 94 9536ft 270kts
07-Jan-21 16:26 36.014941 -115.149657 94 8445ft 262kts
07-Jan-21 16:27 36.009237 -115.064359 92 8005ft 237kts
07-Jan-21 16:28 36.004406 -114.981833 92 8001ft 239kts
07-Jan-21 16:30 35.999500 -114.899816 92 8000ft 239kts
07-Jan-21 16:31 35.994505 -114.817951 92 7999ft 239kts
07-Jan-21 16:32 35.989065 -114.736084 92 7996ft 235kts
07-Jan-21 16:33 35.984263 -114.663750 92 8000ft 194kts
07-Jan-21 16:34 36.003405 -114.607404 23 8000ft 186kts
07-Jan-21 16:35 36.052736 -114.610300 324 8000ft 184kts
07-Jan-21 16:36 36.068614 -114.669054 276 7997ft 189kts
07-Jan-21 16:37 36.073323 -114.734175 273 7837ft 189kts
07-Jan-21 16:38 36.073417 -114.799528 272 7027ft 189kts
07-Jan-21 16:39 36.073560 -114.864236 271 6062ft 191kts
07-Jan-21 16:40 36.073659 -114.930261 271 4797ft 183kts
07-Jan-21 16:41 36.073560 -114.984979 271 4224ft 141kts
07-Jan-21 16:42 36.073621 -115.034154 271 3542ft 141kts
07-Jan-21 16:42 36.073647 -115.074691 271 2904ft 140kts
07-Jan-21 16:44 36.073666 -115.131169 270 2083ft 134kts
07-Jan-21 16:45 36.075220 -115.151193 322 2124ft 0kts
07-Jan-21 16:46 36.075220 -115.151193 322 2124ft 0kts
07-Jan-21 16:47 36.075220 -115.151193 322 2124ft 0kts
07-Jan-21 16:47 36.076013 -115.151910 328 2126ft 27kts
07-Jan-21 16:48 36.080194 -115.151924 345 2117ft 21kts

Navigation Log

Ident Type
Flight plan parsing failed, navigation log unavailable